Time;durP1;ratioP1;P1;durP2;ratioP2;P2;SDS_P1;SDS_P2;PMS_P1;PMS_P2;Temp;Humidity;BMP_temperature;BMP_pressure;BME280_temperature;BME280_humidity;BME280_pressure;Samples;Min_cycle;Max_cycle;Signal;HPM_P1;HPM_P2
2022/10/21 00:00:22;;;;;;;4.75;3.05;;;;;;;12.66;47.26;100402.31;4442075;32;34908;-60
2022/10/21 00:02:49;;;;;;;5.90;3.45;;;;;;;12.61;46.53;100393.72;4432396;32;32729;-61
2022/10/21 00:05:17;;;;;;;3.45;2.00;;;;;;;12.69;45.39;100390.50;4433641;32;32284;-60
2022/10/21 00:07:44;;;;;;;7.07;3.70;;;;;;;12.70;44.83;100398.44;4442640;32;32166;-61
2022/10/21 00:10:12;;;;;;;7.20;4.07;;;;;;;12.58;45.05;100392.16;4441228;32;34186;-60
2022/10/21 00:12:40;;;;;;;3.83;2.12;;;;;;;12.58;45.35;100399.31;4440635;32;33764;-61
2022/10/21 00:15:09;;;;;;;4.35;2.45;;;;;;;12.45;45.67;100402.03;4446918;32;33810;-60
2022/10/21 00:17:38;;;;;;;3.45;2.45;;;;;;;12.44;46.01;100392.28;4443488;32;33583;-59
2022/10/21 00:20:07;;;;;;;5.32;3.75;;;;;;;12.46;45.58;100387.66;4450257;32;33790;-61
2022/10/21 00:22:35;;;;;;;8.15;4.47;;;;;;;12.31;46.86;100392.31;4444168;32;35217;-61
2022/10/21 00:25:04;;;;;;;2.92;2.45;;;;;;;12.24;47.30;100385.66;4440619;32;34217;-59
2022/10/21 00:27:32;;;;;;;6.50;3.30;;;;;;;12.28;47.48;100378.25;4436432;32;33234;-61
2022/10/21 00:29:59;;;;;;;8.88;3.42;;;;;;;12.32;47.59;100369.84;4451371;32;34796;-61
2022/10/21 00:32:27;;;;;;;5.97;2.78;;;;;;;12.38;47.69;100371.25;4448271;32;32649;-60
2022/10/21 00:34:54;;;;;;;3.45;2.17;;;;;;;12.52;47.00;100372.91;4441747;32;34020;-60
2022/10/21 00:37:22;;;;;;;3.75;2.83;;;;;;;12.51;47.50;100366.69;4443187;32;34332;-61
2022/10/21 00:39:51;;;;;;;5.82;3.65;;;;;;;12.41;47.99;100364.81;4436980;32;33843;-59
2022/10/21 00:42:21;;;;;;;3.80;3.03;;;;;;;12.49;47.60;100347.19;4448570;32;34897;-61
2022/10/21 00:45:04;;;;;;;7.05;3.25;;;;;;;12.49;47.56;100357.06;4445151;32;33985;-60
2022/10/21 00:47:55;;;;;;;2.40;1.58;;;;;;;12.60;46.68;100359.81;4443382;32;34216;-60
2022/10/21 00:50:41;;;;;;;4.93;2.22;;;;;;;12.50;47.45;100365.00;4444574;32;32591;-61
2022/10/21 00:53:13;;;;;;;2.95;1.87;;;;;;;12.53;47.38;100355.84;4437279;32;34962;-61
2022/10/21 00:55:45;;;;;;;1.85;1.30;;;;;;;12.54;47.03;100350.34;4438431;32;33696;-63
2022/10/21 00:58:14;;;;;;;4.10;2.58;;;;;;;12.52;47.07;100351.44;4447055;32;33307;-62
2022/10/21 01:00:42;;;;;;;3.78;2.70;;;;;;;12.50;47.08;100354.25;4427396;32;33482;-62
2022/10/21 01:03:11;;;;;;;3.03;1.83;;;;;;;12.59;46.63;100348.22;4445759;32;32666;-65
2022/10/21 01:05:39;;;;;;;2.33;1.90;;;;;;;12.58;46.36;100342.94;4426433;32;33769;-66
2022/10/21 01:08:07;;;;;;;2.40;1.85;;;;;;;12.48;47.04;100344.59;4443280;32;33689;-65
2022/10/21 01:10:36;;;;;;;5.68;3.50;;;;;;;12.51;46.68;100344.38;4444823;32;32310;-64
2022/10/21 01:13:15;;;;;;;3.95;2.55;;;;;;;12.43;47.11;100336.03;4444017;32;33982;-64
2022/10/21 01:15:54;;;;;;;3.37;2.05;;;;;;;12.41;47.80;100337.97;4436805;32;35067;-64
2022/10/21 01:18:33;;;;;;;3.50;2.30;;;;;;;12.54;46.98;100328.03;4433917;32;32042;-64
2022/10/21 01:21:13;;;;;;;1.75;1.65;;;;;;;12.62;46.74;100338.22;4445087;32;32998;-64
2022/10/21 01:24:15;;;;;;;7.82;2.67;;;;;;;12.59;46.90;100336.63;4445090;32;35269;-64
2022/10/21 01:27:04;;;;;;;2.50;1.95;;;;;;;12.57;47.29;100333.19;4448304;32;33625;-64
2022/10/21 01:29:41;;;;;;;3.22;2.17;;;;;;;12.65;46.95;100335.28;4434503;32;33230;-65
2022/10/21 01:32:29;;;;;;;3.42;2.12;;;;;;;12.71;46.02;100337.50;4445812;32;33721;-63
2022/10/21 01:35:02;;;;;;;3.20;2.22;;;;;;;12.62;46.74;100327.47;4438660;32;34144;-64
2022/10/21 01:37:36;;;;;;;6.82;2.60;;;;;;;12.64;46.21;100321.00;4445179;32;32468;-65
2022/10/21 01:40:12;;;;;;;2.25;2.03;;;;;;;12.56;46.64;100323.41;4429191;32;33503;-64
2022/10/21 01:42:49;;;;;;;2.83;2.25;;;;;;;12.54;46.23;100307.41;4443826;32;34609;-65
2022/10/21 01:45:47;;;;;;;3.33;2.00;;;;;;;12.50;46.94;100305.06;4448749;32;33805;-65
2022/10/21 01:48:19;;;;;;;3.25;2.55;;;;;;;12.50;46.55;100297.87;4440497;32;33741;-62
2022/10/21 01:50:51;;;;;;;3.10;1.48;;;;;;;12.39;46.79;100299.62;4428607;32;33138;-63
2022/10/21 01:53:19;;;;;;;1.27;1.17;;;;;;;12.23;46.93;100294.50;4427896;32;33628;-63
2022/10/21 01:55:48;;;;;;;3.50;2.05;;;;;;;12.28;46.53;100301.25;4438783;32;35057;-64
2022/10/21 01:58:19;;;;;;;2.85;1.65;;;;;;;12.34;46.32;100300.81;4442037;32;33642;-64
2022/10/21 02:00:48;;;;;;;1.62;1.23;;;;;;;12.28;46.82;100311.16;4432722;32;33320;-63
2022/10/21 02:03:21;;;;;;;2.08;1.87;;;;;;;12.27;46.77;100310.31;4446699;32;34004;-62
2022/10/21 02:05:49;;;;;;;1.17;1.08;;;;;;;12.25;46.78;100300.63;4445426;32;35268;-63
2022/10/21 02:08:16;;;;;;;4.18;2.45;;;;;;;12.32;46.88;100308.13;4433167;32;32895;-63
2022/10/21 02:10:48;;;;;;;3.03;2.45;;;;;;;12.31;46.86;100297.50;4442772;32;34421;-63
2022/10/21 02:13:19;;;;;;;4.18;2.10;;;;;;;12.32;46.79;100299.22;4434632;32;34012;-64
2022/10/21 02:15:47;;;;;;;3.30;2.28;;;;;;;12.33;46.80;100304.47;4442157;32;33912;-63
2022/10/21 02:18:20;;;;;;;5.72;3.25;;;;;;;12.38;46.83;100319.38;4443057;32;32505;-64
2022/10/21 02:20:51;;;;;;;5.32;2.33;;;;;;;12.35;46.14;100329.38;4443967;32;33191;-64
2022/10/21 02:23:25;;;;;;;2.65;2.15;;;;;;;12.20;46.54;100317.09;4445841;32;34654;-64
2022/10/21 02:25:52;;;;;;;3.62;2.85;;;;;;;12.16;45.98;100312.88;4433790;32;33782;-63
2022/10/21 02:28:20;;;;;;;3.90;2.55;;;;;;;11.95;46.16;100312.63;4444918;32;32478;-64
2022/10/21 02:30:58;;;;;;;2.58;1.80;;;;;;;11.98;45.77;100311.56;4443885;32;33284;-64
2022/10/21 02:33:38;;;;;;;3.08;2.28;;;;;;;11.96;46.30;100319.69;4432125;32;33582;-62
2022/10/21 02:36:16;;;;;;;1.58;1.15;;;;;;;11.99;45.67;100318.63;4446925;32;32820;-63
2022/10/21 02:38:47;;;;;;;2.67;1.87;;;;;;;11.88;46.41;100324.75;4433786;32;33381;-63
2022/10/21 02:41:18;;;;;;;2.03;1.87;;;;;;;11.87;45.77;100318.50;4430633;32;34395;-63
2022/10/21 02:44:15;;;;;;;2.92;1.48;;;;;;;11.70;46.43;100307.25;4443157;32;33740;-63
2022/10/21 02:46:43;;;;;;;1.55;1.02;;;;;;;11.19;48.31;100306.25;4435811;32;33795;-64
2022/10/21 02:49:11;;;;;;;1.85;1.40;;;;;;;11.53;47.82;100305.75;4434514;32;33928;-64
2022/10/21 02:51:40;;;;;;;2.70;2.47;;;;;;;11.63;47.28;100299.62;4439466;32;33087;-64
2022/10/21 02:54:07;;;;;;;3.92;2.80;;;;;;;11.66;47.30;100301.25;4427126;32;34968;-63
2022/10/21 02:56:35;;;;;;;3.08;1.95;;;;;;;11.75;46.52;100297.03;4443705;32;33887;-63
2022/10/21 02:59:02;;;;;;;3.25;2.28;;;;;;;11.51;47.79;100310.34;4442615;32;33743;-63
2022/10/21 03:01:30;;;;;;;1.80;1.37;;;;;;;11.68;47.23;100301.97;4443989;32;35059;-63
2022/10/21 03:03:58;;;;;;;2.15;1.87;;;;;;;11.73;47.34;100301.66;4448263;32;35149;-63
2022/10/21 03:06:25;;;;;;;1.45;1.20;;;;;;;11.66;47.97;100312.81;4443652;32;33762;-64
2022/10/21 03:08:52;;;;;;;3.15;1.75;;;;;;;11.72;47.33;100314.22;4441046;32;33919;-64
2022/10/21 03:11:20;;;;;;;4.50;3.05;;;;;;;11.63;47.96;100304.16;4440481;32;34247;-64
2022/10/21 03:13:48;;;;;;;4.60;2.20;;;;;;;11.69;47.51;100302.88;4444781;32;33141;-63
2022/10/21 03:16:15;;;;;;;2.90;1.95;;;;;;;11.64;47.73;100298.66;4447494;32;33775;-63
2022/10/21 03:18:48;;;;;;;2.87;2.33;;;;;;;11.81;47.37;100304.66;4445738;32;34543;-64
2022/10/21 03:21:15;;;;;;;2.08;1.80;;;;;;;11.76;47.52;100299.62;4444154;32;34880;-63
2022/10/21 03:23:43;;;;;;;4.45;2.55;;;;;;;11.77;47.19;100306.69;4447466;32;35492;-63
2022/10/21 03:26:10;;;;;;;3.92;2.95;;;;;;;11.80;47.23;100300.25;4438531;32;32515;-63
2022/10/21 03:28:38;;;;;;;6.05;3.05;;;;;;;11.81;47.08;100297.50;4450573;32;34115;-64
2022/10/21 03:31:05;;;;;;;3.28;2.28;;;;;;;11.82;46.98;100284.94;4442759;32;33675;-64
2022/10/21 03:33:33;;;;;;;1.15;1.05;;;;;;;11.83;47.02;100282.13;4448078;32;34707;-63
2022/10/21 03:36:00;;;;;;;2.50;1.77;;;;;;;11.67;47.67;100278.81;4444063;32;32523;-63
2022/10/21 03:38:28;;;;;;;6.47;2.60;;;;;;;11.62;47.98;100284.53;4446299;32;33598;-63
2022/10/21 03:40:56;;;;;;;3.42;2.40;;;;;;;11.73;47.14;100290.94;4444683;32;34343;-64
2022/10/21 03:43:23;;;;;;;6.65;2.08;;;;;;;11.71;47.64;100284.81;4448890;32;35013;-64
2022/10/21 03:45:51;;;;;;;3.70;3.12;;;;;;;11.77;47.83;100287.06;4447052;32;33765;-64
2022/10/21 03:48:18;;;;;;;2.37;2.17;;;;;;;11.86;47.46;100281.09;4449161;32;32516;-62
2022/10/21 03:50:46;;;;;;;5.15;2.60;;;;;;;11.66;48.28;100277.13;4447374;32;34646;-62
2022/10/21 03:53:13;;;;;;;2.72;2.35;;;;;;;11.83;47.62;100273.22;4449512;32;33208;-64
2022/10/21 03:56:01;;;;;;;5.30;3.80;;;;;;;11.78;48.01;100273.56;4441005;32;35262;-62
2022/10/21 03:58:29;;;;;;;2.72;2.47;;;;;;;11.73;48.49;100267.66;4439505;32;35477;-63
2022/10/21 04:00:56;;;;;;;2.70;1.85;;;;;;;11.50;48.27;100265.75;4446385;32;34327;-62
2022/10/21 04:03:24;;;;;;;3.40;2.78;;;;;;;11.70;47.63;100262.53;4447763;32;32283;-62
2022/10/21 04:05:51;;;;;;;2.87;2.17;;;;;;;11.62;48.42;100270.22;4447709;32;35064;-63
2022/10/21 04:08:18;;;;;;;9.07;2.30;;;;;;;11.64;48.43;100260.28;4439305;32;33701;-64
2022/10/21 04:10:46;;;;;;;2.60;2.25;;;;;;;11.45;49.23;100251.81;4441337;32;33091;-63
2022/10/21 04:13:14;;;;;;;7.55;3.75;;;;;;;11.50;49.35;100253.22;4446860;32;33890;-63
2022/10/21 04:15:41;;;;;;;6.32;3.17;;;;;;;11.42;49.73;100252.88;4444964;32;34210;-63
2022/10/21 04:18:09;;;;;;;5.15;2.58;;;;;;;11.61;48.59;100252.44;4448674;32;33768;-63
2022/10/21 04:20:36;;;;;;;5.50;3.00;;;;;;;11.62;48.87;100255.03;4442187;32;32999;-62
2022/10/21 04:23:04;;;;;;;4.57;2.60;;;;;;;11.68;48.67;100256.41;4444283;32;33470;-63
2022/10/21 04:25:32;;;;;;;4.80;3.00;;;;;;;11.59;48.91;100257.06;4448272;32;33844;-64
2022/10/21 04:27:59;;;;;;;3.50;2.28;;;;;;;11.60;48.66;100259.62;4430295;32;33792;-64
2022/10/21 04:30:26;;;;;;;2.95;1.92;;;;;;;11.70;48.71;100261.66;4437650;32;34112;-63
2022/10/21 04:32:54;;;;;;;4.32;3.03;;;;;;;11.65;49.21;100252.12;4444935;32;33628;-61
2022/10/21 04:35:22;;;;;;;3.40;2.45;;;;;;;11.64;49.13;100239.66;4445531;32;34005;-61
2022/10/21 04:37:49;;;;;;;12.32;5.70;;;;;;;11.60;49.54;100231.97;4436869;32;33960;-62
2022/10/21 04:40:17;;;;;;;9.73;5.57;;;;;;;11.61;49.37;100223.81;4442477;32;34617;-64
2022/10/21 04:42:48;;;;;;;7.75;5.35;;;;;;;11.54;49.59;100229.72;4444670;32;33988;-62
2022/10/21 04:45:16;;;;;;;2.55;2.08;;;;;;;11.67;49.04;100230.56;4444883;32;35226;-63
2022/10/21 04:47:44;;;;;;;27.65;11.25;;;;;;;11.66;49.37;100221.66;4441634;32;33754;-61
2022/10/21 04:50:11;;;;;;;25.85;8.77;;;;;;;11.32;50.12;100209.78;4443399;32;33248;-63
2022/10/21 04:52:39;;;;;;;12.23;4.90;;;;;;;11.16;50.79;100211.84;4439663;32;33011;-62
2022/10/21 04:55:07;;;;;;;4.18;3.30;;;;;;;11.35;50.45;100217.63;4439534;32;32891;-61
2022/10/21 04:57:35;;;;;;;7.03;2.58;;;;;;;11.47;49.91;100226.63;4440252;32;33952;-61
2022/10/21 05:00:04;;;;;;;8.45;3.85;;;;;;;11.35;50.14;100222.97;4439601;32;34369;-63
2022/10/21 05:02:31;;;;;;;2.22;2.03;;;;;;;11.34;50.32;100223.09;4445623;32;35636;-60
2022/10/21 05:04:59;;;;;;;3.30;2.95;;;;;;;11.42;50.02;100226.06;4447970;32;34918;-63
2022/10/21 05:07:26;;;;;;;4.95;2.58;;;;;;;11.40;50.27;100226.19;4441987;32;32613;-61
2022/10/21 05:09:54;;;;;;;6.55;2.60;;;;;;;11.45;50.23;100225.00;4445371;32;33078;-63
2022/10/21 05:12:21;;;;;;;3.55;2.55;;;;;;;11.21;50.87;100216.87;4438291;32;34759;-63
2022/10/21 05:14:49;;;;;;;5.45;3.83;;;;;;;10.99;51.72;100213.00;4441118;32;35164;-60
2022/10/21 05:17:17;;;;;;;4.53;2.90;;;;;;;11.42;50.21;100221.56;4448543;32;33888;-62
2022/10/21 05:19:44;;;;;;;4.75;3.10;;;;;;;11.47;50.39;100218.59;4445897;32;34221;-62
2022/10/21 05:22:11;;;;;;;15.07;4.00;;;;;;;11.41;50.25;100219.87;4441790;32;32706;-60
2022/10/21 05:24:39;;;;;;;5.55;4.53;;;;;;;11.47;50.71;100226.63;4439241;32;34976;-61
2022/10/21 05:27:07;;;;;;;6.62;3.87;;;;;;;11.49;49.90;100227.34;4444542;32;33334;-63
2022/10/21 05:29:34;;;;;;;4.50;3.03;;;;;;;11.48;50.22;100225.66;4444232;32;34448;-62
2022/10/21 05:32:02;;;;;;;9.45;3.65;;;;;;;11.45;50.60;100223.19;4430638;32;34648;-63
2022/10/21 05:34:29;;;;;;;3.62;2.92;;;;;;;11.73;49.41;100226.59;4443075;32;34418;-63
2022/10/21 05:36:57;;;;;;;4.53;3.00;;;;;;;11.66;49.71;100229.72;4440322;32;34231;-63
2022/10/21 05:39:25;;;;;;;6.05;3.45;;;;;;;11.42;49.91;100234.13;4446894;32;33257;-61
2022/10/21 05:41:52;;;;;;;3.33;2.80;;;;;;;11.68;49.61;100234.94;4438574;32;33700;-61
2022/10/21 05:44:20;;;;;;;3.62;2.87;;;;;;;11.83;49.18;100224.94;4446900;32;32827;-61
2022/10/21 05:46:47;;;;;;;6.68;3.85;;;;;;;11.59;50.01;100227.59;4449055;32;34601;-63
2022/10/21 05:49:15;;;;;;;3.55;2.92;;;;;;;11.58;50.83;100209.75;4447198;32;33276;-61
2022/10/21 05:51:43;;;;;;;14.90;3.97;;;;;;;11.68;49.78;100201.91;4444209;32;33346;-63
2022/10/21 05:54:11;;;;;;;4.85;3.47;;;;;;;11.70;49.39;100200.84;4448976;32;35270;-63
2022/10/21 05:56:41;;;;;;;6.78;4.07;;;;;;;11.76;49.26;100213.81;4441994;32;33837;-62
2022/10/21 05:59:09;;;;;;;3.65;2.05;;;;;;;11.46;50.31;100226.72;4437822;32;34262;-61
2022/10/21 06:01:38;;;;;;;9.63;4.97;;;;;;;11.82;49.25;100253.59;4446285;32;32420;-63
2022/10/21 06:04:06;;;;;;;9.73;3.30;;;;;;;11.89;49.47;100252.22;4449116;32;33296;-61
2022/10/21 06:06:34;;;;;;;4.75;3.00;;;;;;;11.79;49.86;100243.09;4444050;32;34944;-66
2022/10/21 06:09:01;;;;;;;2.28;2.08;;;;;;;11.77;49.88;100261.09;4444823;32;34118;-62
2022/10/21 06:11:29;;;;;;;7.07;3.03;;;;;;;11.77;49.00;100263.78;4437695;32;32086;-61
2022/10/21 06:13:57;;;;;;;9.23;4.53;;;;;;;11.31;50.79;100264.34;4440313;32;33969;-61
2022/10/21 06:16:24;;;;;;;2.58;1.95;;;;;;;11.56;50.48;100270.69;4436916;32;34979;-60
2022/10/21 06:18:52;;;;;;;5.68;3.05;;;;;;;11.48;50.59;100271.22;4434962;32;33608;-66
2022/10/21 06:21:19;;;;;;;7.12;3.42;;;;;;;11.68;49.62;100256.41;4436382;32;34193;-65
2022/10/21 06:23:47;;;;;;;3.97;3.45;;;;;;;11.79;49.12;100255.66;4440965;32;32534;-65
2022/10/21 06:26:16;;;;;;;5.53;3.45;;;;;;;11.94;49.04;100254.59;4440983;32;35013;-66
2022/10/21 06:28:43;;;;;;;7.68;3.75;;;;;;;11.70;50.84;100262.53;4448242;32;31926;-65
2022/10/21 06:31:17;;;;;;;4.43;2.85;;;;;;;11.94;49.69;100275.16;4446796;32;33593;-64
2022/10/21 06:33:44;;;;;;;11.32;2.40;;;;;;;12.30;48.89;100285.91;4446106;32;34335;-63
2022/10/21 06:36:12;;;;;;;10.02;5.30;;;;;;;12.41;48.55;100295.84;4445308;32;34535;-64
2022/10/21 06:38:40;;;;;;;2.20;1.85;;;;;;;12.31;48.18;100284.09;4440943;32;33382;-64
2022/10/21 06:41:11;;;;;;;7.78;2.95;;;;;;;12.47;47.96;100273.94;4439576;32;34783;-64
2022/10/21 06:43:41;;;;;;;3.50;2.83;;;;;;;12.02;47.95;100262.06;4435024;32;34290;-64
2022/10/21 06:46:11;;;;;;;5.72;3.78;;;;;;;12.15;49.00;100260.19;4435228;32;32870;-63
2022/10/21 06:48:39;;;;;;;5.30;3.80;;;;;;;11.62;49.32;100263.06;4442395;32;32005;-64
2022/10/21 06:51:13;;;;;;;5.60;3.50;;;;;;;11.72;49.68;100268.63;4434136;32;33912;-64
2022/10/21 06:53:42;;;;;;;2.12;1.83;;;;;;;11.34;50.33;100248.06;4440332;32;35121;-64
2022/10/21 06:56:15;;;;;;;6.75;3.05;;;;;;;11.92;48.93;100244.94;4443274;32;32797;-65
2022/10/21 06:58:46;;;;;;;4.53;3.37;;;;;;;11.85;48.83;100241.84;4437269;32;34113;-64
2022/10/21 07:01:17;;;;;;;3.97;2.55;;;;;;;11.69;49.69;100247.41;4444037;32;32627;-64
2022/10/21 07:04:05;;;;;;;3.50;2.70;;;;;;;11.34;50.77;100260.63;4444330;32;35345;-64
2022/10/21 07:06:33;;;;;;;3.05;2.22;;;;;;;11.63;49.86;100253.19;4436689;32;35077;-64
2022/10/21 07:09:06;;;;;;;6.57;3.50;;;;;;;11.71;49.27;100253.50;4447497;32;32736;-64
2022/10/21 07:11:34;;;;;;;5.75;4.07;;;;;;;11.66;49.49;100250.31;4441265;32;34993;-64
2022/10/21 07:14:02;;;;;;;2.20;1.87;;;;;;;11.11;51.83;100260.38;4442513;32;33762;-63
2022/10/21 07:16:32;;;;;;;2.62;1.23;;;;;;;11.40;49.82;100250.31;4440312;32;32666;-64
2022/10/21 07:18:59;;;;;;;10.43;2.60;;;;;;;10.64;51.81;100247.53;4440192;32;33325;-63
2022/10/21 07:21:29;;;;;;;3.12;2.72;;;;;;;10.63;51.43;100253.87;4438724;32;32218;-65
2022/10/21 07:23:57;;;;;;;3.75;1.90;;;;;;;10.68;51.53;100259.75;4440957;32;34164;-65
2022/10/21 07:26:28;;;;;;;1.85;1.50;;;;;;;10.95;50.19;100257.03;4436265;32;33785;-64
2022/10/21 07:28:58;;;;;;;2.15;1.95;;;;;;;10.99;50.30;100266.59;4439163;32;31649;-65
2022/10/21 07:31:27;;;;;;;6.65;2.85;;;;;;;10.93;50.20;100264.31;4444887;32;32854;-64
2022/10/21 07:33:55;;;;;;;5.97;3.10;;;;;;;11.27;50.00;100270.91;4447201;32;34007;-63
2022/10/21 07:36:25;;;;;;;8.05;3.58;;;;;;;11.67;49.19;100278.81;4441313;32;35058;-63
2022/10/21 07:38:56;;;;;;;2.28;1.85;;;;;;;11.62;47.94;100280.97;4447041;32;32729;-65
2022/10/21 07:41:26;;;;;;;22.80;2.92;;;;;;;11.58;48.41;100279.47;4431216;32;31994;-64
2022/10/21 07:43:53;;;;;;;5.07;2.92;;;;;;;11.59;48.43;100274.00;4446440;32;33996;-65
2022/10/21 07:46:21;;;;;;;2.95;2.65;;;;;;;11.67;48.77;100260.06;4438278;32;34999;-63
2022/10/21 07:48:49;;;;;;;3.10;1.15;;;;;;;11.43;49.83;100255.47;4445748;32;33500;-63
2022/10/21 07:51:20;;;;;;;3.25;2.95;;;;;;;11.53;49.29;100253.00;4445042;32;32579;-63
2022/10/21 07:53:49;;;;;;;1.83;1.62;;;;;;;11.70;48.38;100254.47;4441334;32;33536;-65
2022/10/21 07:56:20;;;;;;;4.32;2.17;;;;;;;12.08;47.60;100248.22;4440420;32;33856;-63
2022/10/21 07:58:49;;;;;;;3.87;2.42;;;;;;;11.98;47.97;100239.12;4442899;32;33676;-63
2022/10/21 08:01:18;;;;;;;2.83;1.62;;;;;;;11.50;48.96;100237.13;4442341;32;33608;-63
2022/10/21 08:03:47;;;;;;;5.43;2.62;;;;;;;11.55;48.02;100234.09;4447669;32;34089;-63
2022/10/21 08:06:16;;;;;;;20.58;4.15;;;;;;;11.43;48.88;100225.12;4442223;32;32653;-64
2022/10/21 08:08:44;;;;;;;3.92;2.75;;;;;;;11.65;48.10;100219.97;4432762;32;32090;-64
2022/10/21 08:11:20;;;;;;;4.57;3.00;;;;;;;11.50;48.00;100228.22;4444670;32;34691;-64
2022/10/21 08:13:48;;;;;;;2.65;1.85;;;;;;;11.41;48.42;100227.06;4443308;32;34020;-64
2022/10/21 08:16:15;;;;;;;4.12;2.28;;;;;;;11.65;48.21;100222.63;4444145;32;33954;-64
2022/10/21 08:18:43;;;;;;;4.85;2.50;;;;;;;11.95;47.58;100215.19;4438539;32;32037;-64
2022/10/21 08:21:11;;;;;;;4.70;3.37;;;;;;;11.56;49.16;100217.06;4447265;32;35370;-64
2022/10/21 08:23:39;;;;;;;2.28;1.83;;;;;;;11.44;48.06;100208.06;4452490;32;33977;-64
2022/10/21 08:26:10;;;;;;;2.22;2.00;;;;;;;11.57;48.32;100218.78;4451973;32;32143;-64
2022/10/21 08:28:38;;;;;;;4.37;2.72;;;;;;;11.45;48.54;100211.59;4439670;32;33487;-63
2022/10/21 08:31:12;;;;;;;6.47;4.28;;;;;;;11.62;48.33;100213.94;4443494;32;33910;-63
2022/10/21 08:33:40;;;;;;;8.27;2.92;;;;;;;11.24;49.41;100211.31;4444973;32;34767;-63
2022/10/21 08:36:11;;;;;;;8.20;3.28;;;;;;;11.31;50.13;100217.94;4443978;32;34737;-64
2022/10/21 08:38:39;;;;;;;4.03;2.25;;;;;;;11.58;49.02;100204.41;4445160;32;34546;-63
2022/10/21 08:41:17;;;;;;;4.55;2.33;;;;;;;12.08;47.84;100191.84;4432907;32;32391;-62
2022/10/21 08:43:45;;;;;;;4.18;3.03;;;;;;;12.23;47.12;100189.84;4446661;32;35230;-62
2022/10/21 08:46:17;;;;;;;8.88;2.20;;;;;;;12.18;47.84;100192.03;4449566;32;34025;-62
2022/10/21 08:48:50;;;;;;;7.68;3.37;;;;;;;11.98;47.87;100194.38;4436170;32;33713;-63
2022/10/21 08:51:33;;;;;;;4.53;2.78;;;;;;;12.45;47.14;100181.91;4438941;32;32380;-61
2022/10/21 08:54:04;;;;;;;5.32;4.55;;;;;;;12.16;47.98;100175.19;4445765;32;34283;-68
2022/10/21 08:56:32;;;;;;;9.38;4.07;;;;;;;12.38;47.78;100186.03;4447638;32;33398;-63
2022/10/21 08:58:59;;;;;;;2.90;2.50;;;;;;;12.28;47.14;100174.28;4436886;32;32179;-61
2022/10/21 09:01:38;;;;;;;4.07;2.33;;;;;;;12.25;47.24;100172.66;4446451;32;34704;-61
2022/10/21 09:04:27;;;;;;;2.33;2.12;;;;;;;12.34;47.13;100168.44;4446947;32;33922;-60
2022/10/21 09:07:18;;;;;;;1.92;1.60;;;;;;;12.37;47.63;100162.84;4446428;32;33917;-61
2022/10/21 09:09:52;;;;;;;1.55;1.42;;;;;;;11.97;47.49;100168.47;4442280;32;34513;-61
2022/10/21 09:12:29;;;;;;;5.37;2.77;;;;;;;12.31;46.19;100174.03;4444732;32;220069;-61
2022/10/21 09:15:26;;;;;;;1.98;1.65;;;;;;;12.67;46.07;100151.59;4449466;32;32260;-62
2022/10/21 09:18:29;;;;;;;3.17;2.47;;;;;;;12.58;45.33;100160.34;4447582;32;34138;-61
2022/10/21 09:21:08;;;;;;;6.62;3.05;;;;;;;12.29;45.96;100151.81;4430574;32;33320;-60
2022/10/21 09:23:56;;;;;;;2.53;1.73;;;;;;;12.64;45.35;100157.19;4451791;32;33386;-59
2022/10/21 09:26:35;;;;;;;2.22;1.42;;;;;;;12.65;44.72;100148.19;4444449;32;34304;-60
2022/10/21 09:29:20;;;;;;;2.65;1.95;;;;;;;12.56;45.95;100147.03;4450427;32;33320;-58
2022/10/21 09:31:48;;;;;;;5.32;1.50;;;;;;;12.95;45.58;100152.13;4440738;32;33519;-61
2022/10/21 09:34:42;;;;;;;3.60;1.40;;;;;;;12.87;44.43;100141.97;4449362;32;34162;-59
2022/10/21 09:37:17;;;;;;;3.42;1.85;;;;;;;12.67;44.70;100140.84;4448962;32;34099;-60
2022/10/21 09:39:48;;;;;;;5.03;2.20;;;;;;;12.65;45.46;100121.31;4444746;32;35090;-61
2022/10/21 09:42:16;;;;;;;2.47;1.55;;;;;;;12.34;46.00;100126.34;4449854;32;33918;-60
2022/10/21 09:45:05;;;;;;;1.58;1.48;;;;;;;12.12;46.61;100118.22;4446766;32;34928;-60
2022/10/21 09:47:33;;;;;;;5.32;2.45;;;;;;;12.23;46.17;100115.59;4444932;32;33845;-61
2022/10/21 09:50:01;;;;;;;2.28;1.85;;;;;;;12.79;44.75;100117.56;4445493;32;34910;-60
2022/10/21 09:52:35;;;;;;;3.47;2.42;;;;;;;13.02;44.29;100115.75;4449824;32;33068;-60
2022/10/21 09:55:03;;;;;;;2.72;2.12;;;;;;;12.76;44.95;100107.06;4449426;32;32816;-61
2022/10/21 09:57:59;;;;;;;2.92;1.85;;;;;;;13.02;44.75;100108.53;4449304;32;34180;-61
2022/10/21 10:00:59;;;;;;;3.87;2.78;;;;;;;13.02;44.33;100108.53;4441878;32;32411;-61
2022/10/21 10:03:36;;;;;;;2.42;1.58;;;;;;;13.05;44.78;100108.28;4426494;32;34957;-61
2022/10/21 10:06:04;;;;;;;3.65;1.70;;;;;;;12.95;44.22;100106.47;4443454;32;32617;-61
2022/10/21 10:08:32;;;;;;;4.25;1.98;;;;;;;13.31;43.48;100091.09;4430410;32;33617;-60
2022/10/21 10:11:01;;;;;;;1.70;1.33;;;;;;;12.90;44.34;100089.84;4433578;32;32693;-61
2022/10/21 10:13:30;;;;;;;5.15;2.20;;;;;;;13.54;42.77;100092.75;4444865;32;33617;-61
2022/10/21 10:16:11;;;;;;;5.72;2.33;;;;;;;13.80;42.87;100071.78;4449999;32;32792;-61
2022/10/21 10:18:40;;;;;;;3.97;3.08;;;;;;;13.71;43.02;100076.12;4449159;32;34627;-61
2022/10/21 10:28:59;;;;;;;3.50;1.95;;;;;;;13.97;42.47;100071.25;4447679;32;35593;-61
2022/10/21 10:31:31;;;;;;;3.37;1.37;;;;;;;13.86;43.38;100065.03;4446798;32;34781;-62
2022/10/21 10:34:03;;;;;;;2.78;2.08;;;;;;;13.66;43.25;100053.25;4446225;32;35156;-63
2022/10/21 10:36:34;;;;;;;3.97;1.37;;;;;;;13.81;42.97;100052.00;4449473;32;34427;-60
2022/10/21 10:39:06;;;;;;;3.35;1.42;;;;;;;13.46;43.81;100046.84;4443668;32;34006;-60
2022/10/21 10:41:37;;;;;;;3.50;2.87;;;;;;;13.47;43.31;100048.53;4450035;32;34064;-61
2022/10/21 10:44:24;;;;;;;7.55;2.60;;;;;;;13.55;42.68;100043.41;4445807;32;35303;-60
2022/10/21 10:46:56;;;;;;;3.00;1.90;;;;;;;13.42;43.47;100029.25;4444288;32;34087;-60
2022/10/21 10:49:25;;;;;;;5.45;2.12;;;;;;;13.72;42.91;100037.47;4450330;32;34021;-60
2022/10/21 10:52:04;;;;;;;4.78;2.58;;;;;;;13.48;43.29;100026.91;4447157;32;34047;-60
2022/10/21 10:54:31;;;;;;;5.70;2.30;;;;;;;13.88;42.52;100020.91;4444672;32;33910;-60
2022/10/21 10:57:03;;;;;;;1.70;1.10;;;;;;;13.67;43.01;100020.00;4448142;32;34891;-60
2022/10/21 10:59:55;;;;;;;2.95;1.92;;;;;;;13.94;42.53;100003.37;4448064;32;33154;-61
2022/10/21 11:02:55;;;;;;;2.83;1.85;;;;;;;13.88;43.02;100007.44;4446665;32;34174;-61
2022/10/21 11:05:50;;;;;;;3.40;2.35;;;;;;;14.03;42.95;99999.91;4442216;32;34212;-60
2022/10/21 11:08:41;;;;;;;4.40;2.50;;;;;;;14.15;43.46;100003.37;4439145;32;34187;-60
2022/10/21 11:11:21;;;;;;;2.42;1.98;;;;;;;13.96;43.04;100001.41;4429662;32;32338;-60
2022/10/21 11:13:49;;;;;;;3.42;2.10;;;;;;;14.21;42.51;100000.16;4448993;32;35640;-67
2022/10/21 11:16:26;;;;;;;4.43;2.22;;;;;;;14.32;42.64;100002.81;4446516;32;33950;-60
2022/10/21 11:19:01;;;;;;;10.45;2.35;;;;;;;14.15;42.19;99989.91;4436369;32;31999;-60
2022/10/21 11:21:52;;;;;;;3.83;2.58;;;;;;;13.60;43.62;99995.44;4435569;32;32377;-60
2022/10/21 11:24:55;;;;;;;4.10;2.50;;;;;;;14.02;42.70;99998.19;4446148;32;34162;-60
2022/10/21 11:27:44;;;;;;;4.20;1.73;;;;;;;13.75;43.07;99986.09;4445243;32;35167;-60
2022/10/21 11:30:44;;;;;;;3.95;2.62;;;;;;;13.81;43.77;99978.50;4449033;32;32210;-60
2022/10/21 11:33:32;;;;;;;3.05;1.95;;;;;;;14.01;42.31;99969.59;4407595;32;33953;-60
2022/10/21 11:36:25;;;;;;;3.12;2.17;;;;;;;14.23;42.47;99965.06;4452915;32;33876;-60
2022/10/21 11:39:24;;;;;;;3.03;1.77;;;;;;;14.13;42.08;99949.69;4448885;32;34857;-60
2022/10/21 11:42:12;;;;;;;8.20;1.65;;;;;;;14.15;42.12;99950.38;4439004;32;33623;-61
2022/10/21 11:45:20;;;;;;;3.58;1.55;;;;;;;13.81;42.66;99943.53;4450578;32;33916;-60
2022/10/21 11:48:02;;;;;;;1.87;1.60;;;;;;;13.79;42.00;99945.50;4446688;32;35301;-64
2022/10/21 11:50:45;;;;;;;34.58;2.47;;;;;;;13.79;42.55;99949.03;4450138;32;33985;-62
2022/10/21 11:53:27;;;;;;;3.67;1.95;;;;;;;13.79;42.16;99946.34;4451327;32;34658;-62
2022/10/21 11:56:26;;;;;;;2.42;1.40;;;;;;;14.09;42.10;99933.91;4440428;32;34940;-64